createdAt,value
2023-05-15T00:01:04.829Z,4.15
2023-05-15T00:03:33.218Z,4.10
2023-05-15T00:06:00.240Z,4.65
2023-05-15T00:08:27.369Z,4.85
2023-05-15T00:11:01.378Z,4.75
2023-05-15T00:13:42.321Z,4.93
2023-05-15T00:16:09.966Z,5.35
2023-05-15T00:18:37.743Z,4.30
2023-05-15T00:21:05.315Z,4.10
2023-05-15T00:23:35.494Z,3.70
2023-05-15T00:26:02.686Z,4.82
2023-05-15T00:28:29.758Z,4.82
2023-05-15T00:30:57.109Z,4.47
2023-05-15T00:33:24.210Z,4.50
2023-05-15T00:35:51.357Z,4.30
2023-05-15T00:38:18.532Z,4.07
2023-05-15T00:40:46.495Z,4.72
2023-05-15T00:43:15.758Z,3.90
2023-05-15T00:45:43.782Z,4.20
2023-05-15T00:48:12.372Z,4.05
2023-05-15T00:50:42.313Z,4.78
2023-05-15T00:53:10.051Z,4.57
2023-05-15T00:55:37.795Z,5.20
2023-05-15T00:58:05.465Z,4.43
2023-05-15T01:00:33.810Z,4.65
2023-05-15T01:03:02.104Z,4.60
2023-05-15T01:05:29.559Z,4.80
2023-05-15T01:08:07.517Z,4.63
2023-05-15T01:10:36.913Z,4.70
2023-05-15T01:13:05.230Z,4.63
2023-05-15T01:15:32.791Z,4.32
2023-05-15T01:17:59.898Z,4.28
2023-05-15T01:20:27.871Z,3.95
2023-05-15T01:23:39.992Z,4.07
2023-05-15T01:30:12.182Z,3.50
2023-05-15T01:33:14.580Z,4.10
2023-05-15T01:35:53.866Z,3.72
2023-05-15T01:38:47.726Z,3.75
2023-05-15T01:41:58.585Z,4.25
2023-05-15T01:44:56.093Z,4.00
2023-05-15T01:47:40.916Z,4.00
2023-05-15T01:50:13.510Z,4.10
2023-05-15T01:52:44.107Z,4.18
2023-05-15T01:55:13.889Z,3.97
2023-05-15T01:57:44.638Z,4.38
2023-05-15T02:00:15.115Z,4.72
2023-05-15T02:02:44.522Z,3.75
2023-05-15T02:05:14.549Z,3.72
2023-05-15T02:07:45.659Z,3.83
2023-05-15T02:10:14.183Z,4.10
2023-05-15T02:12:43.633Z,4.15
2023-05-15T02:15:15.098Z,4.57
2023-05-15T02:17:49.457Z,3.65
2023-05-15T02:20:23.589Z,4.72
2023-05-15T02:22:51.528Z,3.92
2023-05-15T02:25:29.589Z,4.22
2023-05-15T02:28:01.559Z,3.85
2023-05-15T02:34:22.382Z,4.65
2023-05-15T02:37:01.470Z,3.90
2023-05-15T02:39:33.830Z,4.10
2023-05-15T02:42:05.822Z,4.47
2023-05-15T02:47:22.619Z,4.03
2023-05-15T02:49:52.369Z,4.25
2023-05-15T02:52:21.805Z,4.22
2023-05-15T02:54:50.633Z,3.90
2023-05-15T02:57:19.051Z,4.53
2023-05-15T02:59:49.785Z,4.97
2023-05-15T03:02:20.370Z,4.22
2023-05-15T03:04:48.655Z,3.90
2023-05-15T03:07:17.286Z,4.13
2023-05-15T03:09:47.107Z,4.50
2023-05-15T03:12:16.185Z,4.45
2023-05-15T03:14:45.135Z,3.85
2023-05-15T03:22:48.960Z,4.93
2023-05-15T04:14:11.242Z,4.68
2023-05-15T04:16:40.558Z,4.95
2023-05-15T04:40:54.847Z,5.03
2023-05-15T04:43:26.317Z,6.00
2023-05-15T04:45:57.124Z,5.72
2023-05-15T04:48:27.325Z,7.85
2023-05-15T04:51:00.632Z,7.32
2023-05-15T04:53:37.310Z,7.00
2023-05-15T04:56:10.406Z,8.55
2023-05-15T04:58:42.798Z,7.43
2023-05-15T05:01:18.464Z,7.50
2023-05-15T05:03:47.570Z,6.55
2023-05-15T05:06:16.755Z,6.43
2023-05-15T05:08:48.948Z,7.18
2023-05-15T05:11:21.592Z,7.43
2023-05-15T05:13:50.689Z,6.20
2023-05-15T05:19:00.558Z,6.93
2023-05-15T05:21:29.983Z,5.95
2023-05-15T05:24:00.104Z,6.10
2023-05-15T05:26:30.402Z,6.32
2023-05-15T05:29:02.319Z,6.55
2023-05-15T05:31:30.793Z,6.65
2023-05-15T05:34:01.653Z,6.32
2023-05-15T05:36:33.835Z,6.53
2023-05-15T05:39:06.959Z,6.80
2023-05-15T05:41:35.683Z,8.32
2023-05-15T05:44:08.073Z,7.97
2023-05-15T05:47:00.403Z,7.45
2023-05-15T05:49:52.154Z,8.25
2023-05-15T05:52:34.982Z,8.23
2023-05-15T05:55:10.134Z,8.57
2023-05-15T05:57:47.285Z,8.52
2023-05-15T06:45:53.001Z,9.45
2023-05-15T06:48:19.781Z,9.40
2023-05-15T06:50:46.538Z,9.32
2023-05-15T06:53:14.502Z,8.25
2023-05-15T06:55:41.533Z,8.63
2023-05-15T06:58:08.264Z,8.85
2023-05-15T07:00:34.943Z,9.60
2023-05-15T07:03:01.720Z,8.18
2023-05-15T07:05:28.545Z,9.20
2023-05-15T07:07:55.328Z,8.48
2023-05-15T07:10:22.102Z,8.30
2023-05-15T07:12:48.859Z,8.60
2023-05-15T07:15:17.659Z,8.88
2023-05-15T07:17:44.503Z,8.93
2023-05-15T07:20:11.582Z,9.05
2023-05-15T07:22:51.823Z,8.70
2023-05-15T07:25:23.329Z,9.18
2023-05-15T07:27:50.777Z,8.43
2023-05-15T07:30:17.852Z,8.45
2023-05-15T07:32:44.700Z,8.82
2023-05-15T07:35:14.234Z,8.38
2023-05-15T07:37:41.012Z,7.65
2023-05-15T07:40:08.412Z,8.65
2023-05-15T07:42:35.180Z,8.25
2023-05-15T07:45:02.061Z,8.55
2023-05-15T07:47:28.897Z,9.10
2023-05-15T07:49:55.975Z,8.98
2023-05-15T07:52:22.884Z,8.75
2023-05-15T07:54:49.705Z,9.13
2023-05-15T07:57:16.376Z,8.73
2023-05-15T07:59:43.075Z,8.75
2023-05-15T08:02:09.912Z,8.40
2023-05-15T08:04:36.626Z,8.85
2023-05-15T08:07:03.559Z,8.73
2023-05-15T08:09:30.258Z,7.57
2023-05-15T08:11:57.477Z,7.40
2023-05-15T08:14:24.305Z,6.80
2023-05-15T08:16:51.674Z,7.20
2023-05-15T08:19:19.400Z,7.57
2023-05-15T08:21:46.178Z,6.60
2023-05-15T08:24:12.871Z,6.60
2023-05-15T08:26:39.534Z,6.57
2023-05-15T08:29:06.228Z,6.28
2023-05-15T08:31:33.023Z,5.53
2023-05-15T08:33:59.743Z,5.18
2023-05-15T08:36:26.500Z,5.57
2023-05-15T08:38:53.309Z,4.38
2023-05-15T08:41:40.491Z,4.47
2023-05-15T08:44:09.566Z,5.22
2023-05-15T08:46:36.568Z,5.55
2023-05-15T08:49:22.208Z,5.30
2023-05-15T08:51:49.211Z,5.53
2023-05-15T08:54:16.529Z,5.88
2023-05-15T08:56:43.699Z,5.22
2023-05-15T08:59:10.795Z,5.25
2023-05-15T09:01:38.168Z,4.15
2023-05-15T09:04:05.395Z,4.47
2023-05-15T09:06:34.192Z,4.47
2023-05-15T09:09:02.222Z,4.90
2023-05-15T09:11:29.935Z,4.97
2023-05-15T09:14:00.004Z,5.43
2023-05-15T09:16:27.376Z,4.90
2023-05-15T09:18:54.493Z,4.28
2023-05-15T09:21:29.215Z,5.85
2023-05-15T09:24:15.044Z,5.65
2023-05-15T09:26:42.905Z,5.40
2023-05-15T09:29:09.722Z,5.10
2023-05-15T09:31:36.591Z,5.70
2023-05-15T09:34:04.704Z,5.35
2023-05-15T09:36:32.500Z,5.55
2023-05-15T09:39:00.756Z,5.90
2023-05-15T09:41:28.326Z,8.13
2023-05-15T09:43:56.642Z,5.90
2023-05-15T09:46:24.226Z,5.70
2023-05-15T09:48:55.503Z,5.63
2023-05-15T09:51:22.385Z,6.03
2023-05-15T09:53:50.938Z,5.35
2023-05-15T09:56:18.195Z,5.82
2023-05-15T09:58:59.041Z,5.25
2023-05-15T10:01:26.446Z,5.13
2023-05-15T10:04:01.317Z,4.90
2023-05-15T10:06:42.637Z,5.55
2023-05-15T10:09:12.795Z,4.45
2023-05-15T10:11:41.663Z,4.38
2023-05-15T10:14:11.036Z,5.10
2023-05-15T10:16:39.648Z,4.70
2023-05-15T10:19:11.294Z,4.80
2023-05-15T10:21:43.704Z,6.60
2023-05-15T10:24:11.557Z,4.85
2023-05-15T10:26:39.349Z,4.53
2023-05-15T10:29:11.367Z,5.30
2023-05-15T10:31:39.017Z,5.50
2023-05-15T10:34:07.050Z,5.60
2023-05-15T10:36:36.720Z,5.47
2023-05-15T10:39:06.140Z,4.60
2023-05-15T10:41:40.079Z,5.25
2023-05-15T10:44:07.153Z,4.90
2023-05-15T10:46:36.035Z,5.30
2023-05-15T10:49:02.954Z,4.80
2023-05-15T10:51:32.867Z,5.10
2023-05-15T10:54:03.743Z,5.15
2023-05-15T10:56:31.916Z,4.50
2023-05-15T10:59:04.666Z,5.43
2023-05-15T11:01:33.533Z,10.60
2023-05-15T11:04:11.414Z,6.03
2023-05-15T11:06:40.507Z,5.65
2023-05-15T11:09:22.806Z,4.60
2023-05-15T11:11:52.979Z,5.03
2023-05-15T11:14:20.125Z,4.95
2023-05-15T11:16:53.451Z,4.95
2023-05-15T11:19:32.567Z,5.00
2023-05-15T11:22:00.535Z,4.00
2023-05-15T11:24:31.975Z,3.45
2023-05-15T11:27:03.564Z,3.30
2023-05-15T11:29:31.594Z,3.30
2023-05-15T11:31:58.553Z,4.07
2023-05-15T11:34:31.733Z,4.88
2023-05-15T11:36:59.975Z,4.97
2023-05-15T11:39:27.727Z,5.47
2023-05-15T11:41:55.058Z,6.30
2023-05-15T11:44:22.951Z,5.97
2023-05-15T11:46:53.760Z,6.63
2023-05-15T11:49:20.641Z,6.68
2023-05-15T11:51:48.696Z,5.78
2023-05-15T11:54:16.597Z,5.63
2023-05-15T11:56:46.596Z,6.20
2023-05-15T11:59:17.153Z,6.15
2023-05-15T12:01:48.154Z,6.47
2023-05-15T12:04:16.227Z,6.15
2023-05-15T12:06:44.791Z,6.53
2023-05-15T12:09:27.106Z,6.75
2023-05-15T12:11:56.982Z,6.25
2023-05-15T12:14:28.635Z,6.38
2023-05-15T12:17:01.495Z,10.40
2023-05-15T12:19:28.937Z,7.03
2023-05-15T12:21:55.626Z,7.25
2023-05-15T12:24:22.754Z,8.35
2023-05-15T12:26:49.604Z,6.43
2023-05-15T12:29:16.442Z,7.20
2023-05-15T12:31:43.651Z,5.15
2023-05-15T12:34:11.245Z,9.82
2023-05-15T12:36:41.007Z,9.50
2023-05-15T12:39:08.029Z,7.93
2023-05-15T12:41:38.383Z,7.43
2023-05-15T12:44:06.389Z,7.22
2023-05-15T12:46:33.184Z,7.80
2023-05-15T12:49:00.471Z,5.18
2023-05-15T12:51:29.833Z,3.40
2023-05-15T12:53:59.957Z,5.30
2023-05-15T12:56:29.271Z,5.43
2023-05-15T12:58:56.412Z,5.22
2023-05-15T13:01:23.279Z,4.03
2023-05-15T13:03:51.152Z,4.35
2023-05-15T13:06:18.090Z,5.43
2023-05-15T13:08:45.880Z,5.03
2023-05-15T13:11:14.572Z,5.82
2023-05-15T13:13:49.317Z,5.53
2023-05-15T13:16:19.283Z,6.30
2023-05-15T13:18:46.188Z,10.13
2023-05-15T13:21:14.279Z,9.60
2023-05-15T13:23:41.164Z,10.02
2023-05-15T13:26:07.865Z,8.35
2023-05-15T13:28:34.721Z,10.02
2023-05-15T13:31:01.561Z,8.77
2023-05-15T13:33:28.951Z,8.05
2023-05-15T13:35:57.266Z,8.32
2023-05-15T13:38:24.015Z,6.35
2023-05-15T13:40:50.703Z,4.32
2023-05-15T13:43:17.325Z,2.88
2023-05-15T13:45:43.992Z,2.13
2023-05-15T13:48:10.805Z,2.45
2023-05-15T13:50:37.436Z,2.10
2023-05-15T13:53:04.073Z,2.60
2023-05-15T13:55:31.522Z,1.98
2023-05-15T13:57:58.588Z,2.83
2023-05-15T14:00:25.498Z,2.80
2023-05-15T14:02:52.461Z,2.78
2023-05-15T14:05:19.255Z,3.00
2023-05-15T14:07:46.190Z,2.97
2023-05-15T14:10:13.177Z,3.90
2023-05-15T14:12:40.249Z,3.50
2023-05-15T14:15:07.691Z,3.90
2023-05-15T14:17:35.051Z,3.78
2023-05-15T14:20:01.937Z,4.85
2023-05-15T14:22:28.652Z,5.82
2023-05-15T14:24:55.489Z,6.18
2023-05-15T14:27:22.130Z,5.90
2023-05-15T14:29:49.146Z,5.30
2023-05-15T14:32:16.839Z,4.93
2023-05-15T14:34:44.104Z,5.15
2023-05-15T14:37:10.930Z,4.50
2023-05-15T14:39:37.748Z,3.80
2023-05-15T14:42:04.728Z,2.40
2023-05-15T14:44:31.430Z,3.33
2023-05-15T14:47:12.741Z,2.90
2023-05-15T14:49:39.936Z,2.78
2023-05-15T14:52:08.936Z,2.72
2023-05-15T14:54:35.878Z,2.72
2023-05-15T14:57:02.930Z,2.65
2023-05-15T14:59:29.887Z,2.70
2023-05-15T15:01:56.661Z,2.90
2023-05-15T15:04:23.469Z,2.58
2023-05-15T15:06:50.264Z,2.70
2023-05-15T15:09:18.265Z,2.60
2023-05-15T15:11:46.277Z,2.70
2023-05-15T15:14:12.949Z,2.80
2023-05-15T15:16:39.768Z,2.85
2023-05-15T15:19:06.574Z,2.47
2023-05-15T15:21:34.648Z,2.40
2023-05-15T15:24:01.450Z,2.75
2023-05-15T15:26:28.232Z,2.53
2023-05-15T15:29:00.580Z,2.63
2023-05-15T15:31:28.749Z,2.38
2023-05-15T15:33:56.286Z,2.33
2023-05-15T15:36:23.433Z,2.58
2023-05-15T15:38:50.296Z,2.50
2023-05-15T15:41:17.131Z,2.88
2023-05-15T15:43:43.996Z,2.67
2023-05-15T15:46:10.737Z,2.90
2023-05-15T15:48:37.462Z,2.50
2023-05-15T15:51:05.271Z,2.63
2023-05-15T15:53:34.274Z,2.53
2023-05-15T15:56:01.437Z,2.88
2023-05-15T15:58:28.864Z,2.63
2023-05-15T16:00:55.641Z,2.75
2023-05-15T16:03:22.431Z,3.33
2023-05-15T16:05:49.271Z,2.78
2023-05-15T16:08:15.932Z,3.33
2023-05-15T16:10:42.663Z,3.33
2023-05-15T16:13:10.509Z,3.53
2023-05-15T16:15:37.127Z,4.13
2023-05-15T16:18:03.957Z,3.00
2023-05-15T16:20:31.647Z,3.42
2023-05-15T16:22:59.014Z,3.28
2023-05-15T16:25:25.676Z,3.50
2023-05-15T16:27:52.398Z,3.20
2023-05-15T16:30:19.193Z,3.75
2023-05-15T16:32:46.122Z,3.10
2023-05-15T16:35:12.843Z,3.22
2023-05-15T16:37:39.542Z,3.20
2023-05-15T16:40:06.926Z,3.90
2023-05-15T16:42:37.972Z,3.40
2023-05-15T16:45:06.073Z,3.75
2023-05-15T16:47:33.882Z,3.45
2023-05-15T16:50:00.912Z,3.70
2023-05-15T16:52:27.626Z,2.97
2023-05-15T16:54:54.376Z,3.75
2023-05-15T16:57:21.074Z,3.95
2023-05-15T16:59:47.955Z,3.50
2023-05-15T17:02:14.890Z,3.33
2023-05-15T17:04:41.669Z,3.42
2023-05-15T17:07:09.198Z,3.10
2023-05-15T17:09:38.235Z,3.10
2023-05-15T17:12:05.659Z,3.60
2023-05-15T17:14:32.374Z,3.30
2023-05-15T17:16:59.040Z,3.42
2023-05-15T17:19:25.695Z,3.75
2023-05-15T17:21:52.367Z,3.17
2023-05-15T17:24:19.136Z,3.30
2023-05-15T17:26:45.797Z,3.10
2023-05-15T17:29:12.439Z,3.15
2023-05-15T17:31:39.186Z,3.28
2023-05-15T17:34:05.834Z,3.05
2023-05-15T17:36:33.647Z,3.65
2023-05-15T17:39:00.571Z,3.50
2023-05-15T17:41:27.296Z,3.33
2023-05-15T17:43:53.962Z,3.33
2023-05-15T17:46:20.827Z,3.22
2023-05-15T17:48:47.597Z,3.28
2023-05-15T17:51:14.316Z,3.50
2023-05-15T17:53:41.038Z,2.80
2023-05-15T17:56:08.059Z,3.28
2023-05-15T17:58:34.705Z,3.30
2023-05-15T18:01:01.723Z,3.22
2023-05-15T18:03:29.024Z,3.17
2023-05-15T18:05:56.024Z,2.88
2023-05-15T18:08:22.762Z,3.08
2023-05-15T18:10:49.466Z,3.30
2023-05-15T18:13:16.371Z,3.33
2023-05-15T18:15:43.271Z,3.75
2023-05-15T18:18:10.077Z,4.15
2023-05-15T18:20:39.052Z,4.18
2023-05-15T18:23:05.733Z,4.40
2023-05-15T18:25:36.820Z,3.55
2023-05-15T18:28:04.373Z,3.17
2023-05-15T18:30:31.116Z,3.42
2023-05-15T18:32:58.148Z,3.00
2023-05-15T18:35:25.199Z,3.25
2023-05-15T18:37:52.057Z,2.85
2023-05-15T18:40:18.925Z,3.03
2023-05-15T18:42:45.616Z,3.75
2023-05-15T18:45:13.165Z,3.03
2023-05-15T18:47:39.957Z,2.70
2023-05-15T18:50:07.175Z,3.40
2023-05-15T18:52:33.822Z,3.05
2023-05-15T18:55:01.422Z,3.45
2023-05-15T18:57:28.181Z,3.10
2023-05-15T18:59:55.287Z,3.38
2023-05-15T19:02:23.040Z,3.05
2023-05-15T19:04:51.318Z,3.67
2023-05-15T19:07:17.927Z,3.33
2023-05-15T19:09:44.628Z,2.95
2023-05-15T19:12:11.369Z,3.25
2023-05-15T19:14:38.030Z,2.80
2023-05-15T19:17:04.966Z,3.30
2023-05-15T19:19:31.933Z,3.92
2023-05-15T19:21:58.636Z,3.85
2023-05-15T19:24:25.611Z,3.90
2023-05-15T19:26:52.215Z,3.53
2023-05-15T19:29:18.824Z,3.70
2023-05-15T19:31:45.936Z,4.68
2023-05-15T19:34:12.728Z,4.32
2023-05-15T19:36:39.561Z,4.70
2023-05-15T19:39:06.480Z,4.47
2023-05-15T19:41:33.200Z,5.15
2023-05-15T19:44:00.911Z,5.03
2023-05-15T19:46:27.775Z,5.43
2023-05-15T19:48:54.699Z,5.72
2023-05-15T19:51:21.558Z,4.72
2023-05-15T19:53:48.269Z,5.63
2023-05-15T19:56:14.964Z,4.53
2023-05-15T19:58:41.725Z,4.38
2023-05-15T20:01:08.444Z,5.00
2023-05-15T20:03:35.295Z,5.50
2023-05-15T20:06:03.109Z,5.03
2023-05-15T20:08:30.238Z,5.28
2023-05-15T20:10:57.634Z,4.22
2023-05-15T20:13:24.594Z,5.85
2023-05-15T20:15:58.577Z,4.65
2023-05-15T20:18:31.572Z,5.72
2023-05-15T20:21:00.608Z,5.43
2023-05-15T20:23:27.368Z,8.35
2023-05-15T20:25:54.235Z,8.77
2023-05-15T20:28:24.851Z,9.02
2023-05-15T20:30:52.465Z,9.13
2023-05-15T20:33:19.568Z,10.25
2023-05-15T20:35:47.269Z,9.98
2023-05-15T20:50:02.139Z,10.90
2023-05-15T20:52:28.927Z,10.80
2023-05-15T20:54:55.800Z,11.18
2023-05-15T20:57:22.856Z,11.23
2023-05-15T20:59:49.737Z,11.65
2023-05-15T21:02:16.972Z,11.65
2023-05-15T21:04:44.693Z,10.18
2023-05-15T21:07:11.739Z,11.40
2023-05-15T21:09:38.451Z,11.68
2023-05-15T21:14:52.351Z,10.43
2023-05-15T21:42:57.366Z,10.15
2023-05-15T22:18:29.854Z,10.05
2023-05-15T22:23:46.373Z,10.38
2023-05-15T22:26:32.727Z,9.75
2023-05-15T23:12:45.257Z,7.25
2023-05-15T23:15:18.446Z,7.82
2023-05-15T23:20:52.394Z,8.75
2023-05-15T23:23:43.606Z,9.25
2023-05-15T23:28:43.785Z,7.22
2023-05-15T23:31:17.185Z,9.73
2023-05-15T23:33:46.186Z,8.00
2023-05-15T23:36:17.398Z,9.50
2023-05-15T23:38:48.710Z,9.93
2023-05-15T23:41:17.893Z,9.90
2023-05-15T23:43:48.677Z,10.57
2023-05-15T23:46:18.268Z,9.88
2023-05-15T23:48:49.564Z,9.80
2023-05-15T23:51:18.984Z,11.02
2023-05-15T23:54:22.568Z,9.63
2023-05-15T23:57:28.173Z,9.48
